sensor_id;sensor_type;location;lat;lon;timestamp;pressure;altitude;pressure_sealevel;temperature;humidity
65173;BME280;51758;52.218;5.172;2022-12-07T00:01:04;101707.03;;;3.70;100.00
65173;BME280;51758;52.218;5.172;2022-12-07T00:03:33;101721.44;;;3.61;100.00
65173;BME280;51758;52.218;5.172;2022-12-07T00:06:02;101720.94;;;3.56;100.00
65173;BME280;51758;52.218;5.172;2022-12-07T00:08:30;101718.81;;;3.50;100.00
65173;BME280;51758;52.218;5.172;2022-12-07T00:11:01;101725.84;;;3.48;100.00
65173;BME280;51758;52.218;5.172;2022-12-07T00:13:31;101722.44;;;3.47;100.00
65173;BME280;51758;52.218;5.172;2022-12-07T00:16:00;101719.88;;;3.47;100.00
65173;BME280;51758;52.218;5.172;2022-12-07T00:18:29;101710.09;;;3.40;100.00
65173;BME280;51758;52.218;5.172;2022-12-07T00:20:59;101713.19;;;3.56;100.00
65173;BME280;51758;52.218;5.172;2022-12-07T00:23:28;101705.31;;;3.46;100.00
65173;BME280;51758;52.218;5.172;2022-12-07T00:25:56;101705.75;;;3.40;100.00
65173;BME280;51758;52.218;5.172;2022-12-07T00:28:23;101696.69;;;3.35;100.00
65173;BME280;51758;52.218;5.172;2022-12-07T00:30:52;101698.72;;;3.42;100.00
65173;BME280;51758;52.218;5.172;2022-12-07T00:33:26;101699.78;;;3.40;100.00
65173;BME280;51758;52.218;5.172;2022-12-07T00:35:55;101689.16;;;3.32;100.00
65173;BME280;51758;52.218;5.172;2022-12-07T00:38:23;101697.63;;;3.34;100.00
65173;BME280;51758;52.218;5.172;2022-12-07T00:40:55;101688.22;;;3.33;100.00
65173;BME280;51758;52.218;5.172;2022-12-07T00:43:24;101687.03;;;3.26;100.00
65173;BME280;51758;52.218;5.172;2022-12-07T00:45:54;101686.06;;;3.15;100.00
65173;BME280;51758;52.218;5.172;2022-12-07T00:48:22;101686.59;;;3.08;100.00
65173;BME280;51758;52.218;5.172;2022-12-07T00:50:50;101682.47;;;3.05;100.00
65173;BME280;51758;52.218;5.172;2022-12-07T00:53:19;101683.06;;;3.09;100.00
65173;BME280;51758;52.218;5.172;2022-12-07T00:55:46;101695.66;;;3.13;100.00
65173;BME280;51758;52.218;5.172;2022-12-07T00:58:15;101692.88;;;3.16;100.00
65173;BME280;51758;52.218;5.172;2022-12-07T01:00:43;101689.50;;;3.03;100.00
65173;BME280;51758;52.218;5.172;2022-12-07T01:03:14;101686.59;;;3.08;100.00
65173;BME280;51758;52.218;5.172;2022-12-07T01:05:49;101687.00;;;3.14;100.00
65173;BME280;51758;52.218;5.172;2022-12-07T01:08:17;101683.31;;;2.93;100.00
65173;BME280;51758;52.218;5.172;2022-12-07T01:10:45;101682.41;;;2.94;100.00
65173;BME280;51758;52.218;5.172;2022-12-07T01:13:14;101679.09;;;2.92;100.00
65173;BME280;51758;52.218;5.172;2022-12-07T01:15:42;101690.56;;;2.88;100.00
65173;BME280;51758;52.218;5.172;2022-12-07T01:18:11;101684.25;;;2.92;100.00
65173;BME280;51758;52.218;5.172;2022-12-07T01:20:39;101682.63;;;2.91;100.00
65173;BME280;51758;52.218;5.172;2022-12-07T01:23:07;101693.06;;;2.90;100.00
65173;BME280;51758;52.218;5.172;2022-12-07T01:25:35;101693.66;;;2.93;100.00
65173;BME280;51758;52.218;5.172;2022-12-07T01:28:03;101691.72;;;2.84;100.00
65173;BME280;51758;52.218;5.172;2022-12-07T01:30:31;101695.13;;;2.84;100.00
65173;BME280;51758;52.218;5.172;2022-12-07T01:32:59;101693.69;;;2.80;100.00
65173;BME280;51758;52.218;5.172;2022-12-07T01:35:28;101691.81;;;2.82;100.00
65173;BME280;51758;52.218;5.172;2022-12-07T01:37:55;101685.25;;;2.78;100.00
65173;BME280;51758;52.218;5.172;2022-12-07T01:40:23;101694.81;;;2.89;100.00
65173;BME280;51758;52.218;5.172;2022-12-07T01:42:50;101704.69;;;2.95;100.00
65173;BME280;51758;52.218;5.172;2022-12-07T01:45:42;101706.78;;;2.90;100.00
65173;BME280;51758;52.218;5.172;2022-12-07T01:48:11;101710.38;;;2.87;100.00
65173;BME280;51758;52.218;5.172;2022-12-07T01:50:43;101710.88;;;2.93;100.00
65173;BME280;51758;52.218;5.172;2022-12-07T01:53:12;101708.72;;;2.99;100.00
65173;BME280;51758;52.218;5.172;2022-12-07T01:55:44;101694.66;;;3.03;100.00
65173;BME280;51758;52.218;5.172;2022-12-07T01:58:13;101694.22;;;3.09;100.00
65173;BME280;51758;52.218;5.172;2022-12-07T02:00:42;101686.31;;;3.23;100.00
65173;BME280;51758;52.218;5.172;2022-12-07T02:03:15;101687.50;;;3.31;100.00
65173;BME280;51758;52.218;5.172;2022-12-07T02:05:47;101688.03;;;3.36;100.00
65173;BME280;51758;52.218;5.172;2022-12-07T02:08:16;101685.66;;;3.33;100.00
65173;BME280;51758;52.218;5.172;2022-12-07T02:10:45;101679.34;;;3.37;100.00
65173;BME280;51758;52.218;5.172;2022-12-07T02:13:14;101675.47;;;3.42;100.00
65173;BME280;51758;52.218;5.172;2022-12-07T02:15:56;101676.94;;;3.22;100.00
65173;BME280;51758;52.218;5.172;2022-12-07T02:18:37;101665.72;;;3.11;100.00
65173;BME280;51758;52.218;5.172;2022-12-07T02:21:12;101677.59;;;3.13;100.00
65173;BME280;51758;52.218;5.172;2022-12-07T02:27:10;101671.16;;;3.19;100.00
65173;BME280;51758;52.218;5.172;2022-12-07T02:29:47;101669.03;;;3.13;100.00
65173;BME280;51758;52.218;5.172;2022-12-07T02:32:23;101673.16;;;3.15;100.00
65173;BME280;51758;52.218;5.172;2022-12-07T02:34:56;101667.28;;;3.13;100.00
65173;BME280;51758;52.218;5.172;2022-12-07T02:37:32;101671.44;;;3.27;100.00
65173;BME280;51758;52.218;5.172;2022-12-07T02:40:08;101666.59;;;3.22;100.00
65173;BME280;51758;52.218;5.172;2022-12-07T02:42:40;101663.72;;;3.27;100.00
65173;BME280;51758;52.218;5.172;2022-12-07T02:45:14;101665.88;;;3.20;100.00
65173;BME280;51758;52.218;5.172;2022-12-07T02:47:44;101670.38;;;3.30;100.00
65173;BME280;51758;52.218;5.172;2022-12-07T02:50:13;101675.53;;;3.30;100.00
65173;BME280;51758;52.218;5.172;2022-12-07T02:52:41;101674.81;;;3.16;100.00
65173;BME280;51758;52.218;5.172;2022-12-07T02:55:09;101659.44;;;3.15;100.00
65173;BME280;51758;52.218;5.172;2022-12-07T02:57:51;101667.47;;;3.34;100.00
65173;BME280;51758;52.218;5.172;2022-12-07T03:00:22;101670.63;;;3.27;100.00
65173;BME280;51758;52.218;5.172;2022-12-07T03:02:53;101673.47;;;3.35;100.00
65173;BME280;51758;52.218;5.172;2022-12-07T03:05:40;101671.19;;;3.30;100.00
65173;BME280;51758;52.218;5.172;2022-12-07T03:08:13;101669.03;;;3.37;100.00
65173;BME280;51758;52.218;5.172;2022-12-07T03:10:52;101665.34;;;3.28;100.00
65173;BME280;51758;52.218;5.172;2022-12-07T03:13:23;101652.59;;;3.38;100.00
65173;BME280;51758;52.218;5.172;2022-12-07T03:15:58;101654.09;;;3.29;100.00
65173;BME280;51758;52.218;5.172;2022-12-07T03:18:31;101663.81;;;3.26;100.00
65173;BME280;51758;52.218;5.172;2022-12-07T03:21:05;101663.81;;;3.26;100.00
65173;BME280;51758;52.218;5.172;2022-12-07T03:23:35;101663.41;;;3.19;100.00
65173;BME280;51758;52.218;5.172;2022-12-07T03:26:08;101661.28;;;3.13;100.00
65173;BME280;51758;52.218;5.172;2022-12-07T03:28:42;101661.19;;;3.14;100.00
65173;BME280;51758;52.218;5.172;2022-12-07T03:31:16;101659.44;;;3.15;100.00
65173;BME280;51758;52.218;5.172;2022-12-07T03:33:49;101667.59;;;3.09;100.00
65173;BME280;51758;52.218;5.172;2022-12-07T03:36:21;101667.81;;;3.06;100.00
65173;BME280;51758;52.218;5.172;2022-12-07T03:38:55;101668.91;;;3.14;100.00
65173;BME280;51758;52.218;5.172;2022-12-07T03:41:27;101669.66;;;3.16;100.00
65173;BME280;51758;52.218;5.172;2022-12-07T03:43:57;101664.97;;;3.21;100.00
65173;BME280;51758;52.218;5.172;2022-12-07T03:46:34;101664.13;;;3.21;100.00
65173;BME280;51758;52.218;5.172;2022-12-07T03:49:08;101661.91;;;3.16;100.00
65173;BME280;51758;52.218;5.172;2022-12-07T03:51:43;101651.22;;;3.21;100.00
65173;BME280;51758;52.218;5.172;2022-12-07T03:54:16;101652.56;;;3.27;100.00
65173;BME280;51758;52.218;5.172;2022-12-07T03:56:45;101643.38;;;3.22;100.00
65173;BME280;51758;52.218;5.172;2022-12-07T03:59:15;101652.16;;;3.20;100.00
65173;BME280;51758;52.218;5.172;2022-12-07T04:01:45;101644.63;;;3.17;100.00
65173;BME280;51758;52.218;5.172;2022-12-07T04:04:18;101642.56;;;3.22;100.00
65173;BME280;51758;52.218;5.172;2022-12-07T04:06:46;101644.91;;;3.25;100.00
65173;BME280;51758;52.218;5.172;2022-12-07T04:09:14;101631.81;;;3.28;100.00
65173;BME280;51758;52.218;5.172;2022-12-07T04:11:42;101635.38;;;3.14;100.00
65173;BME280;51758;52.218;5.172;2022-12-07T04:14:10;101640.97;;;3.08;100.00
65173;BME280;51758;52.218;5.172;2022-12-07T04:16:50;101637.41;;;2.98;100.00
65173;BME280;51758;52.218;5.172;2022-12-07T04:19:20;101642.25;;;3.03;100.00
65173;BME280;51758;52.218;5.172;2022-12-07T04:21:47;101656.56;;;3.07;100.00
65173;BME280;51758;52.218;5.172;2022-12-07T04:24:15;101679.97;;;3.16;100.00
65173;BME280;51758;52.218;5.172;2022-12-07T04:26:45;101675.53;;;3.30;100.00
65173;BME280;51758;52.218;5.172;2022-12-07T04:29:13;101667.63;;;3.44;100.00
65173;BME280;51758;52.218;5.172;2022-12-07T04:31:41;101640.97;;;3.43;100.00
65173;BME280;51758;52.218;5.172;2022-12-07T04:34:12;101631.66;;;3.53;100.00
65173;BME280;51758;52.218;5.172;2022-12-07T04:36:41;101632.00;;;3.60;100.00
65173;BME280;51758;52.218;5.172;2022-12-07T04:39:17;101635.91;;;3.66;100.00
65173;BME280;51758;52.218;5.172;2022-12-07T04:41:46;101640.44;;;3.51;100.00
65173;BME280;51758;52.218;5.172;2022-12-07T04:44:14;101627.22;;;3.32;100.00
65173;BME280;51758;52.218;5.172;2022-12-07T04:46:42;101635.47;;;3.37;100.00
65173;BME280;51758;52.218;5.172;2022-12-07T04:49:12;101635.31;;;3.27;100.00
65173;BME280;51758;52.218;5.172;2022-12-07T04:51:41;101635.75;;;3.21;100.00
65173;BME280;51758;52.218;5.172;2022-12-07T04:54:09;101635.13;;;3.17;100.00
65173;BME280;51758;52.218;5.172;2022-12-07T04:56:37;101633.38;;;3.18;100.00
65173;BME280;51758;52.218;5.172;2022-12-07T04:59:04;101629.53;;;3.23;100.00
65173;BME280;51758;52.218;5.172;2022-12-07T05:01:33;101603.09;;;3.09;100.00
65173;BME280;51758;52.218;5.172;2022-12-07T05:04:01;101617.75;;;3.08;100.00
65173;BME280;51758;52.218;5.172;2022-12-07T05:06:30;101627.84;;;3.11;100.00
65173;BME280;51758;52.218;5.172;2022-12-07T05:08:57;101621.94;;;2.98;100.00
65173;BME280;51758;52.218;5.172;2022-12-07T05:11:25;101620.38;;;2.96;100.00
65173;BME280;51758;52.218;5.172;2022-12-07T05:14:07;101625.66;;;2.94;100.00
65173;BME280;51758;52.218;5.172;2022-12-07T05:16:35;101626.47;;;2.95;100.00
65173;BME280;51758;52.218;5.172;2022-12-07T05:19:03;101629.25;;;2.92;100.00
65173;BME280;51758;52.218;5.172;2022-12-07T05:21:33;101608.25;;;2.85;100.00
65173;BME280;51758;52.218;5.172;2022-12-07T05:24:01;101630.53;;;2.86;100.00
65173;BME280;51758;52.218;5.172;2022-12-07T05:26:29;101627.91;;;2.75;100.00
65173;BME280;51758;52.218;5.172;2022-12-07T05:28:57;101629.25;;;2.68;100.00
65173;BME280;51758;52.218;5.172;2022-12-07T05:31:25;101624.59;;;2.73;100.00
65173;BME280;51758;52.218;5.172;2022-12-07T05:33:53;101624.19;;;2.66;100.00
65173;BME280;51758;52.218;5.172;2022-12-07T05:36:21;101625.63;;;2.70;100.00
65173;BME280;51758;52.218;5.172;2022-12-07T05:38:50;101622.63;;;2.76;100.00
65173;BME280;51758;52.218;5.172;2022-12-07T05:41:18;101620.66;;;2.80;100.00
65173;BME280;51758;52.218;5.172;2022-12-07T05:44:04;101628.78;;;2.86;100.00
65173;BME280;51758;52.218;5.172;2022-12-07T05:46:33;101630.38;;;2.76;100.00
65173;BME280;51758;52.218;5.172;2022-12-07T05:49:01;101631.41;;;2.74;100.00
65173;BME280;51758;52.218;5.172;2022-12-07T05:51:29;101621.81;;;2.76;100.00
65173;BME280;51758;52.218;5.172;2022-12-07T05:53:58;101621.81;;;2.76;100.00
65173;BME280;51758;52.218;5.172;2022-12-07T05:56:25;101619.72;;;2.81;100.00
65173;BME280;51758;52.218;5.172;2022-12-07T05:58:54;101620.16;;;2.75;100.00
65173;BME280;51758;52.218;5.172;2022-12-07T06:01:39;101601.72;;;2.68;100.00
65173;BME280;51758;52.218;5.172;2022-12-07T06:04:07;101618.19;;;2.78;100.00
65173;BME280;51758;52.218;5.172;2022-12-07T06:06:35;101618.88;;;2.80;100.00
65173;BME280;51758;52.218;5.172;2022-12-07T06:09:04;101623.06;;;2.94;100.00
65173;BME280;51758;52.218;5.172;2022-12-07T06:11:32;101620.38;;;2.96;100.00
65173;BME280;51758;52.218;5.172;2022-12-07T06:14:17;101620.53;;;3.05;100.00
65173;BME280;51758;52.218;5.172;2022-12-07T06:16:45;101620.31;;;3.08;100.00
65173;BME280;51758;52.218;5.172;2022-12-07T06:19:13;101603.47;;;2.92;100.00
65173;BME280;51758;52.218;5.172;2022-12-07T06:21:41;101619.78;;;2.92;100.00
65173;BME280;51758;52.218;5.172;2022-12-07T06:24:12;101630.13;;;2.79;100.00
65173;BME280;51758;52.218;5.172;2022-12-07T06:26:40;101625.22;;;2.76;100.00
65173;BME280;51758;52.218;5.172;2022-12-07T06:29:09;101619.81;;;2.79;100.00
65173;BME280;51758;52.218;5.172;2022-12-07T06:31:37;101623.00;;;2.83;100.00
65173;BME280;51758;52.218;5.172;2022-12-07T06:34:06;101620.50;;;2.94;100.00
65173;BME280;51758;52.218;5.172;2022-12-07T06:36:34;101620.78;;;3.02;100.00
65173;BME280;51758;52.218;5.172;2022-12-07T06:39:03;101625.94;;;3.02;100.00
65173;BME280;51758;52.218;5.172;2022-12-07T06:41:32;101623.00;;;3.07;100.00
65173;BME280;51758;52.218;5.172;2022-12-07T06:44:00;101630.44;;;3.11;100.00
65173;BME280;51758;52.218;5.172;2022-12-07T06:46:28;101619.28;;;3.11;100.00
65173;BME280;51758;52.218;5.172;2022-12-07T06:48:56;101622.13;;;2.95;100.00
65173;BME280;51758;52.218;5.172;2022-12-07T06:51:24;101638.28;;;3.10;100.00
65173;BME280;51758;52.218;5.172;2022-12-07T06:53:52;101627.13;;;3.09;100.00
65173;BME280;51758;52.218;5.172;2022-12-07T06:56:20;101616.03;;;3.20;100.00
65173;BME280;51758;52.218;5.172;2022-12-07T06:58:50;101617.44;;;3.13;100.00
65173;BME280;51758;52.218;5.172;2022-12-07T07:01:18;101614.13;;;3.11;100.00
65173;BME280;51758;52.218;5.172;2022-12-07T07:03:46;101618.97;;;3.15;100.00
65173;BME280;51758;52.218;5.172;2022-12-07T07:06:14;101618.56;;;3.09;100.00
65173;BME280;51758;52.218;5.172;2022-12-07T07:08:42;101621.81;;;3.00;100.00
65173;BME280;51758;52.218;5.172;2022-12-07T07:11:10;101618.88;;;3.04;100.00
65173;BME280;51758;52.218;5.172;2022-12-07T07:13:38;101616.50;;;2.90;100.00
65173;BME280;51758;52.218;5.172;2022-12-07T07:16:08;101618.25;;;2.90;100.00
65173;BME280;51758;52.218;5.172;2022-12-07T07:18:37;101619.81;;;2.79;100.00
65173;BME280;51758;52.218;5.172;2022-12-07T07:21:05;101615.72;;;2.77;100.00
65173;BME280;51758;52.218;5.172;2022-12-07T07:23:32;101619.53;;;2.71;100.00
65173;BME280;51758;52.218;5.172;2022-12-07T07:26:00;101624.81;;;2.70;100.00
65173;BME280;51758;52.218;5.172;2022-12-07T07:28:28;101629.47;;;2.65;100.00
65173;BME280;51758;52.218;5.172;2022-12-07T07:30:56;101633.19;;;2.61;100.00
65173;BME280;51758;52.218;5.172;2022-12-07T07:33:25;101626.50;;;2.58;100.00
65173;BME280;51758;52.218;5.172;2022-12-07T07:35:52;101633.00;;;2.64;100.00
65173;BME280;51758;52.218;5.172;2022-12-07T07:38:20;101633.72;;;2.66;100.00
65173;BME280;51758;52.218;5.172;2022-12-07T07:40:47;101636.09;;;2.56;100.00
65173;BME280;51758;52.218;5.172;2022-12-07T07:43:15;101643.72;;;2.58;100.00
65173;BME280;51758;52.218;5.172;2022-12-07T07:45:43;101633.09;;;2.62;100.00
65173;BME280;51758;52.218;5.172;2022-12-07T07:48:11;101617.00;;;2.59;100.00
65173;BME280;51758;52.218;5.172;2022-12-07T07:50:40;101632.66;;;2.68;100.00
65173;BME280;51758;52.218;5.172;2022-12-07T07:53:08;101628.22;;;2.70;100.00
65173;BME280;51758;52.218;5.172;2022-12-07T07:55:36;101627.91;;;2.75;100.00
65173;BME280;51758;52.218;5.172;2022-12-07T07:58:03;101633.84;;;2.88;100.00
65173;BME280;51758;52.218;5.172;2022-12-07T08:00:31;101648.44;;;3.00;100.00
65173;BME280;51758;52.218;5.172;2022-12-07T08:02:59;101650.09;;;3.01;100.00
65173;BME280;51758;52.218;5.172;2022-12-07T08:05:26;101646.34;;;3.05;100.00
65173;BME280;51758;52.218;5.172;2022-12-07T08:07:57;101649.38;;;3.23;100.00
65173;BME280;51758;52.218;5.172;2022-12-07T08:10:25;101653.03;;;3.32;100.00
65173;BME280;51758;52.218;5.172;2022-12-07T08:12:52;101649.50;;;3.33;100.00
65173;BME280;51758;52.218;5.172;2022-12-07T08:15:41;101650.41;;;3.20;100.00
65173;BME280;51758;52.218;5.172;2022-12-07T08:18:09;101651.56;;;3.16;100.00
65173;BME280;51758;52.218;5.172;2022-12-07T08:20:38;101660.84;;;3.19;100.00
65173;BME280;51758;52.218;5.172;2022-12-07T08:23:08;101658.50;;;3.16;100.00
65173;BME280;51758;52.218;5.172;2022-12-07T08:25:37;101656.03;;;3.14;100.00
65173;BME280;51758;52.218;5.172;2022-12-07T08:28:04;101659.53;;;3.13;100.00
65173;BME280;51758;52.218;5.172;2022-12-07T08:30:32;101649.56;;;3.20;100.00
65173;BME280;51758;52.218;5.172;2022-12-07T08:33:00;101658.59;;;3.38;100.00
65173;BME280;51758;52.218;5.172;2022-12-07T08:35:28;101653.75;;;3.34;100.00
65173;BME280;51758;52.218;5.172;2022-12-07T08:37:55;101656.94;;;3.37;100.00
65173;BME280;51758;52.218;5.172;2022-12-07T08:40:25;101654.25;;;3.39;100.00
65173;BME280;51758;52.218;5.172;2022-12-07T08:42:53;101660.50;;;3.47;100.00
65173;BME280;51758;52.218;5.172;2022-12-07T08:45:21;101657.34;;;3.55;100.00
65173;BME280;51758;52.218;5.172;2022-12-07T08:47:55;101661.25;;;3.72;100.00
65173;BME280;51758;52.218;5.172;2022-12-07T08:50:24;101641.19;;;3.64;100.00
65173;BME280;51758;52.218;5.172;2022-12-07T08:52:54;101638.59;;;3.64;100.00
65173;BME280;51758;52.218;5.172;2022-12-07T08:55:24;101632.03;;;3.71;100.00
65173;BME280;51758;52.218;5.172;2022-12-07T08:57:52;101629.00;;;3.77;100.00
65173;BME280;51758;52.218;5.172;2022-12-07T09:00:20;101634.31;;;3.98;100.00
65173;BME280;51758;52.218;5.172;2022-12-07T09:02:48;101634.53;;;3.95;100.00
65173;BME280;51758;52.218;5.172;2022-12-07T09:05:16;101629.97;;;3.99;100.00
65173;BME280;51758;52.218;5.172;2022-12-07T09:07:46;101636.66;;;4.01;100.00
65173;BME280;51758;52.218;5.172;2022-12-07T09:10:15;101636.19;;;4.07;100.00
65173;BME280;51758;52.218;5.172;2022-12-07T09:12:44;101641.63;;;4.15;100.00
65173;BME280;51758;52.218;5.172;2022-12-07T09:15:12;101647.34;;;4.08;100.00
65173;BME280;51758;52.218;5.172;2022-12-07T09:17:39;101639.03;;;4.15;100.00
65173;BME280;51758;52.218;5.172;2022-12-07T09:20:08;101645.34;;;4.00;100.00
65173;BME280;51758;52.218;5.172;2022-12-07T09:22:36;101644.19;;;4.26;100.00
65173;BME280;51758;52.218;5.172;2022-12-07T09:25:04;101654.66;;;4.25;100.00
65173;BME280;51758;52.218;5.172;2022-12-07T09:27:32;101647.72;;;4.37;100.00
65173;BME280;51758;52.218;5.172;2022-12-07T09:30:01;101642.19;;;4.52;100.00
65173;BME280;51758;52.218;5.172;2022-12-07T09:32:29;101627.75;;;4.27;100.00
65173;BME280;51758;52.218;5.172;2022-12-07T09:34:57;101653.00;;;4.46;100.00
65173;BME280;51758;52.218;5.172;2022-12-07T09:37:24;101641.38;;;4.52;100.00
65173;BME280;51758;52.218;5.172;2022-12-07T09:39:52;101645.81;;;4.61;100.00
65173;BME280;51758;52.218;5.172;2022-12-07T09:42:27;101649.22;;;4.61;100.00
65173;BME280;51758;52.218;5.172;2022-12-07T09:44:56;101638.16;;;4.71;100.00
65173;BME280;51758;52.218;5.172;2022-12-07T09:47:26;101641.00;;;4.56;100.00
65173;BME280;51758;52.218;5.172;2022-12-07T09:49:59;101632.94;;;4.82;100.00
65173;BME280;51758;52.218;5.172;2022-12-07T09:52:28;101632.31;;;4.68;100.00
65173;BME280;51758;52.218;5.172;2022-12-07T09:55:09;101632.03;;;4.72;100.00
65173;BME280;51758;52.218;5.172;2022-12-07T09:57:38;101627.53;;;4.85;100.00
65173;BME280;51758;52.218;5.172;2022-12-07T10:00:11;101630.34;;;4.93;100.00
65173;BME280;51758;52.218;5.172;2022-12-07T10:02:43;101628.84;;;4.90;100.00
65173;BME280;51758;52.218;5.172;2022-12-07T10:05:13;101620.84;;;4.93;100.00
65173;BME280;51758;52.218;5.172;2022-12-07T10:07:49;101622.84;;;4.90;100.00
65173;BME280;51758;52.218;5.172;2022-12-07T10:10:20;101623.84;;;4.66;100.00
65173;BME280;51758;52.218;5.172;2022-12-07T10:12:58;101626.31;;;4.68;100.00
65173;BME280;51758;52.218;5.172;2022-12-07T10:15:46;101624.88;;;4.75;100.00
65173;BME280;51758;52.218;5.172;2022-12-07T10:18:27;101620.72;;;4.84;100.00
65173;BME280;51758;52.218;5.172;2022-12-07T10:21:12;101616.25;;;4.86;100.00
65173;BME280;51758;52.218;5.172;2022-12-07T10:23:42;101613.44;;;4.89;100.00
65173;BME280;51758;52.218;5.172;2022-12-07T10:26:21;101615.75;;;5.03;100.00
65173;BME280;51758;52.218;5.172;2022-12-07T10:28:53;101607.56;;;5.19;100.00
65173;BME280;51758;52.218;5.172;2022-12-07T10:31:22;101609.78;;;5.44;100.00
65173;BME280;51758;52.218;5.172;2022-12-07T10:33:53;101605.47;;;5.33;100.00
65173;BME280;51758;52.218;5.172;2022-12-07T10:36:24;101602.34;;;5.51;100.00
65173;BME280;51758;52.218;5.172;2022-12-07T10:38:58;101597.84;;;5.94;100.00
65173;BME280;51758;52.218;5.172;2022-12-07T10:41:26;101603.56;;;6.28;100.00
65173;BME280;51758;52.218;5.172;2022-12-07T10:43:55;101599.47;;;6.26;100.00
65173;BME280;51758;52.218;5.172;2022-12-07T10:47:09;101606.75;;;6.41;100.00
65173;BME280;51758;52.218;5.172;2022-12-07T10:50:22;101602.59;;;6.20;100.00
65173;BME280;51758;52.218;5.172;2022-12-07T10:53:06;101606.34;;;6.06;100.00
65173;BME280;51758;52.218;5.172;2022-12-07T10:55:51;101603.13;;;6.23;100.00
65173;BME280;51758;52.218;5.172;2022-12-07T10:58:31;101598.13;;;6.01;100.00
65173;BME280;51758;52.218;5.172;2022-12-07T11:01:11;101598.50;;;5.96;100.00
65173;BME280;51758;52.218;5.172;2022-12-07T11:04:01;101588.47;;;5.82;100.00
65173;BME280;51758;52.218;5.172;2022-12-07T11:06:37;101585.00;;;5.72;100.00
65173;BME280;51758;52.218;5.172;2022-12-07T11:15:49;101580.47;;;5.64;100.00
65173;BME280;51758;52.218;5.172;2022-12-07T11:18:24;101576.06;;;5.55;100.00
65173;BME280;51758;52.218;5.172;2022-12-07T11:20:59;101579.97;;;5.50;100.00
65173;BME280;51758;52.218;5.172;2022-12-07T11:23:42;101592.63;;;5.43;100.00
65173;BME280;51758;52.218;5.172;2022-12-07T11:26:20;101577.31;;;5.40;100.00
65173;BME280;51758;52.218;5.172;2022-12-07T11:29:04;101572.19;;;5.50;100.00
65173;BME280;51758;52.218;5.172;2022-12-07T11:31:48;101572.19;;;5.50;100.00
65173;BME280;51758;52.218;5.172;2022-12-07T11:34:27;101567.91;;;5.39;100.00
65173;BME280;51758;52.218;5.172;2022-12-07T11:36:59;101565.13;;;5.31;100.00
65173;BME280;51758;52.218;5.172;2022-12-07T11:39:33;101561.09;;;5.38;100.00
65173;BME280;51758;52.218;5.172;2022-12-07T11:42:09;101521.69;;;5.14;100.00
65173;BME280;51758;52.218;5.172;2022-12-07T11:44:50;101553.69;;;5.33;100.00
65173;BME280;51758;52.218;5.172;2022-12-07T11:47:25;101553.81;;;5.32;100.00
65173;BME280;51758;52.218;5.172;2022-12-07T11:49:58;101550.56;;;5.30;100.00
65173;BME280;51758;52.218;5.172;2022-12-07T11:52:40;101558.53;;;5.48;100.00
65173;BME280;51758;52.218;5.172;2022-12-07T11:55:19;101547.13;;;5.50;100.00
65173;BME280;51758;52.218;5.172;2022-12-07T11:57:53;101544.91;;;5.46;100.00
65173;BME280;51758;52.218;5.172;2022-12-07T12:00:24;101539.22;;;5.52;100.00
65173;BME280;51758;52.218;5.172;2022-12-07T12:02:55;101538.16;;;5.54;100.00
65173;BME280;51758;52.218;5.172;2022-12-07T12:05:26;101537.41;;;5.73;100.00
65173;BME280;51758;52.218;5.172;2022-12-07T12:08:00;101536.31;;;5.66;100.00
65173;BME280;51758;52.218;5.172;2022-12-07T12:10:55;101533.06;;;5.73;100.00
65173;BME280;51758;52.218;5.172;2022-12-07T12:19:38;101530.25;;;6.17;100.00
65173;BME280;51758;52.218;5.172;2022-12-07T12:22:13;101527.44;;;6.39;100.00
65173;BME280;51758;52.218;5.172;2022-12-07T12:24:43;101534.44;;;6.67;100.00
65173;BME280;51758;52.218;5.172;2022-12-07T12:27:23;101529.09;;;6.78;100.00
65173;BME280;51758;52.218;5.172;2022-12-07T12:29:54;101534.00;;;7.10;100.00
65173;BME280;51758;52.218;5.172;2022-12-07T12:32:32;101549.31;;;7.04;100.00
65173;BME280;51758;52.218;5.172;2022-12-07T12:35:26;101527.16;;;6.42;100.00
65173;BME280;51758;52.218;5.172;2022-12-07T12:37:54;101521.22;;;6.21;100.00
65173;BME280;51758;52.218;5.172;2022-12-07T12:40:38;101531.88;;;5.87;100.00
65173;BME280;51758;52.218;5.172;2022-12-07T12:46:46;101516.72;;;5.83;100.00
65173;BME280;51758;52.218;5.172;2022-12-07T12:49:43;101519.13;;;5.65;100.00
65173;BME280;51758;52.218;5.172;2022-12-07T12:58:36;101500.88;;;5.76;100.00
65173;BME280;51758;52.218;5.172;2022-12-07T13:01:36;101499.25;;;5.75;100.00
65173;BME280;51758;52.218;5.172;2022-12-07T13:04:25;101498.03;;;5.79;100.00
65173;BME280;51758;52.218;5.172;2022-12-07T13:06:54;101501.44;;;5.80;100.00
65173;BME280;51758;52.218;5.172;2022-12-07T13:09:24;101496.81;;;5.83;100.00
65173;BME280;51758;52.218;5.172;2022-12-07T13:12:00;101489.94;;;5.93;100.00
65173;BME280;51758;52.218;5.172;2022-12-07T13:14:56;101481.47;;;5.91;100.00
65173;BME280;51758;52.218;5.172;2022-12-07T13:17:58;101476.31;;;6.01;100.00
65173;BME280;51758;52.218;5.172;2022-12-07T13:20:43;101473.34;;;6.15;100.00
65173;BME280;51758;52.218;5.172;2022-12-07T13:23:12;101460.81;;;6.30;100.00
65173;BME280;51758;52.218;5.172;2022-12-07T13:25:49;101456.97;;;6.34;100.00
65173;BME280;51758;52.218;5.172;2022-12-07T13:28:19;101451.94;;;6.32;100.00
65173;BME280;51758;52.218;5.172;2022-12-07T13:31:04;101443.69;;;5.98;100.00
65173;BME280;51758;52.218;5.172;2022-12-07T13:33:37;101460.63;;;6.02;100.00
65173;BME280;51758;52.218;5.172;2022-12-07T13:36:14;101451.91;;;6.03;100.00
65173;BME280;51758;52.218;5.172;2022-12-07T13:38:50;101451.22;;;6.11;100.00
65173;BME280;51758;52.218;5.172;2022-12-07T13:41:19;101441.94;;;6.08;100.00